createdAt,value
2017-07-12T00:00:27.932Z,99.90
2017-07-12T00:02:55.447Z,99.90
2017-07-12T00:05:22.983Z,99.90
2017-07-12T00:07:51.283Z,99.90
2017-07-12T00:10:18.790Z,99.90
2017-07-12T00:12:46.378Z,99.90
2017-07-12T00:15:14.693Z,99.90
2017-07-12T00:17:42.184Z,99.90
2017-07-12T00:20:09.702Z,99.90
2017-07-12T00:22:37.251Z,99.90
2017-07-12T00:25:04.744Z,99.90
2017-07-12T00:27:32.382Z,99.90
2017-07-12T00:29:59.899Z,99.90
2017-07-12T00:32:27.395Z,99.90
2017-07-12T00:34:55.625Z,99.90
2017-07-12T00:37:23.107Z,99.80
2017-07-12T00:39:51.354Z,99.30
2017-07-12T00:42:18.857Z,99.30
2017-07-12T00:44:46.346Z,99.20
2017-07-12T00:47:13.830Z,99.30
2017-07-12T00:49:41.335Z,99.40
2017-07-12T00:52:08.841Z,99.50
2017-07-12T00:54:36.329Z,99.90
2017-07-12T00:57:04.642Z,99.90
2017-07-12T00:59:32.111Z,99.90
2017-07-12T01:01:59.609Z,99.90
2017-07-12T01:04:27.106Z,99.90
2017-07-12T01:06:54.644Z,99.90
2017-07-12T01:09:22.947Z,99.90
2017-07-12T01:11:50.502Z,99.90
2017-07-12T01:14:18.072Z,99.90
2017-07-12T01:16:45.592Z,99.90
2017-07-12T01:19:13.879Z,99.90
2017-07-12T01:21:42.118Z,99.90
2017-07-12T01:24:09.707Z,99.90
2017-07-12T01:26:37.984Z,99.90
2017-07-12T01:29:05.461Z,99.90
2017-07-12T01:31:32.941Z,99.90
2017-07-12T01:34:00.495Z,99.90
2017-07-12T01:36:27.980Z,99.90
2017-07-12T01:38:55.597Z,99.90
2017-07-12T01:41:23.137Z,99.90
2017-07-12T01:43:51.429Z,99.90
2017-07-12T01:46:19.736Z,99.90
2017-07-12T01:48:47.320Z,99.90
2017-07-12T01:51:14.799Z,99.90
2017-07-12T01:53:43.215Z,99.90
2017-07-12T01:56:10.752Z,99.90
2017-07-12T01:58:39.028Z,99.90
2017-07-12T02:01:07.308Z,99.90
2017-07-12T02:03:35.603Z,99.90
2017-07-12T02:06:03.164Z,99.90
2017-07-12T02:08:30.680Z,99.90
2017-07-12T02:10:58.166Z,99.90
2017-07-12T02:13:26.478Z,99.90
2017-07-12T02:15:53.976Z,99.90
2017-07-12T02:18:21.470Z,99.90
2017-07-12T02:20:49.838Z,99.90
2017-07-12T02:23:17.418Z,99.90
2017-07-12T02:25:44.945Z,99.90
2017-07-12T02:28:12.440Z,99.90
2017-07-12T02:30:40.099Z,99.90
2017-07-12T02:33:07.609Z,99.90
2017-07-12T02:35:35.114Z,99.90
2017-07-12T02:38:02.608Z,99.90
2017-07-12T02:40:30.244Z,99.70
2017-07-12T02:42:57.720Z,99.20
2017-07-12T02:45:25.218Z,98.90
2017-07-12T02:47:52.744Z,98.90
2017-07-12T02:50:20.218Z,98.80
2017-07-12T02:52:47.722Z,98.90
2017-07-12T02:55:15.239Z,98.70
2017-07-12T02:57:42.734Z,98.60
2017-07-12T03:00:10.993Z,98.20
2017-07-12T03:02:38.519Z,98.20
2017-07-12T03:05:06.013Z,98.10
2017-07-12T03:07:33.500Z,98.20
2017-07-12T03:10:01.084Z,97.70
2017-07-12T03:12:28.591Z,97.60
2017-07-12T03:14:56.096Z,97.60
2017-07-12T03:17:23.616Z,97.80
2017-07-12T03:19:51.858Z,98.10
2017-07-12T03:22:19.356Z,98.10
2017-07-12T03:24:47.634Z,98.00
2017-07-12T03:27:15.874Z,98.00
2017-07-12T03:29:43.374Z,97.90
2017-07-12T03:32:10.876Z,98.10
2017-07-12T03:34:38.424Z,98.30
2017-07-12T03:37:05.936Z,98.30
2017-07-12T03:39:46.300Z,98.30
2017-07-12T03:42:15.019Z,98.40
2017-07-12T03:44:42.521Z,98.40
2017-07-12T03:47:10.327Z,98.20
2017-07-12T03:49:37.904Z,97.90
2017-07-12T03:52:06.341Z,97.60
2017-07-12T03:54:33.867Z,97.70
2017-07-12T03:57:01.362Z,97.90
2017-07-12T03:59:28.861Z,97.30
2017-07-12T04:01:56.362Z,97.70
2017-07-12T04:04:23.869Z,96.40
2017-07-12T04:06:51.426Z,96.50
2017-07-12T04:09:19.426Z,96.50
2017-07-12T04:11:46.922Z,95.90
2017-07-12T04:14:14.532Z,95.90
2017-07-12T04:16:42.045Z,95.50
2017-07-12T04:19:09.540Z,95.40
2017-07-12T04:21:37.057Z,95.60
2017-07-12T04:24:05.376Z,95.30
2017-07-12T04:26:32.877Z,95.40
2017-07-12T04:29:00.358Z,95.10
2017-07-12T04:31:27.959Z,95.20
2017-07-12T04:33:55.465Z,94.80
2017-07-12T04:36:22.960Z,94.90
2017-07-12T04:38:50.542Z,94.70
2017-07-12T04:41:18.056Z,94.70
2017-07-12T04:43:45.637Z,94.30
2017-07-12T04:46:13.205Z,94.00
2017-07-12T04:48:40.713Z,94.00
2017-07-12T04:51:08.226Z,93.90
2017-07-12T04:53:35.745Z,94.00
2017-07-12T04:56:03.218Z,93.80
2017-07-12T04:58:32.433Z,93.30
2017-07-12T05:00:59.948Z,93.60
2017-07-12T05:03:27.522Z,93.30
2017-07-12T05:05:55.133Z,93.20
2017-07-12T05:08:22.644Z,92.90
2017-07-12T05:10:50.147Z,92.80
2017-07-12T05:13:17.645Z,93.00
2017-07-12T05:15:45.172Z,93.10
2017-07-12T05:18:12.723Z,92.80
2017-07-12T05:20:40.253Z,93.40
2017-07-12T05:23:08.528Z,93.60
2017-07-12T05:25:36.783Z,93.10
2017-07-12T05:28:04.335Z,93.00
2017-07-12T05:30:31.855Z,93.60
2017-07-12T05:32:59.385Z,93.70
2017-07-12T05:35:27.672Z,92.80
2017-07-12T05:37:56.000Z,93.00
2017-07-12T05:40:23.489Z,93.00
2017-07-12T05:42:50.959Z,92.50
2017-07-12T05:45:19.239Z,91.90
2017-07-12T05:47:47.523Z,92.10
2017-07-12T05:50:15.027Z,92.10
2017-07-12T05:52:42.566Z,92.20
2017-07-12T05:55:10.124Z,91.90
2017-07-12T05:57:37.661Z,92.30
2017-07-12T06:00:05.943Z,92.50
2017-07-12T06:02:33.563Z,92.40
2017-07-12T06:05:01.223Z,92.30
2017-07-12T06:07:28.734Z,92.40
2017-07-12T06:09:56.287Z,92.20
2017-07-12T06:12:23.775Z,92.30
2017-07-12T06:14:51.298Z,92.40
2017-07-12T06:17:18.861Z,92.40
2017-07-12T06:19:47.577Z,92.70
2017-07-12T06:22:15.108Z,92.80
2017-07-12T06:24:42.631Z,92.50
2017-07-12T06:27:10.224Z,92.50
2017-07-12T06:29:38.507Z,92.60
2017-07-12T06:32:06.016Z,92.60
2017-07-12T06:34:33.561Z,92.70
2017-07-12T06:37:01.068Z,92.60
2017-07-12T06:39:29.337Z,92.50
2017-07-12T06:41:57.614Z,91.50
2017-07-12T06:44:25.897Z,91.30
2017-07-12T06:46:54.152Z,90.40
2017-07-12T06:49:21.645Z,90.30
2017-07-12T06:51:49.163Z,90.80
2017-07-12T06:54:16.671Z,90.50
2017-07-12T06:56:44.173Z,90.30
2017-07-12T06:59:11.889Z,90.10
2017-07-12T07:01:39.391Z,91.20
2017-07-12T07:04:06.890Z,90.30
2017-07-12T07:06:35.167Z,90.90
2017-07-12T07:09:03.409Z,91.40
2017-07-12T07:11:30.917Z,91.40
2017-07-12T07:13:58.464Z,90.80
2017-07-12T07:16:26.712Z,91.00
2017-07-12T07:18:54.195Z,91.00
2017-07-12T07:21:22.484Z,91.30
2017-07-12T07:23:50.037Z,91.20
2017-07-12T07:26:18.312Z,91.00
2017-07-12T07:28:46.587Z,91.60
2017-07-12T07:31:14.849Z,90.80
2017-07-12T07:33:43.111Z,91.20
2017-07-12T07:36:10.647Z,91.20
2017-07-12T07:38:38.165Z,91.40
2017-07-12T07:41:06.415Z,92.10
2017-07-12T07:43:33.930Z,92.20
2017-07-12T07:46:01.459Z,92.20
2017-07-12T07:48:29.722Z,92.00
2017-07-12T07:50:58.027Z,91.60
2017-07-12T07:53:25.528Z,91.60
2017-07-12T07:55:53.017Z,92.00
2017-07-12T07:58:21.397Z,90.70
2017-07-12T08:00:49.697Z,90.70
2017-07-12T08:03:17.946Z,90.70
2017-07-12T08:05:45.472Z,90.80
2017-07-12T08:08:12.964Z,91.40
2017-07-12T08:10:40.478Z,91.40
2017-07-12T08:13:08.029Z,88.60
2017-07-12T08:15:35.539Z,90.00
2017-07-12T08:18:03.056Z,88.90
2017-07-12T08:20:30.584Z,89.30
2017-07-12T08:22:58.065Z,86.10
2017-07-12T08:25:25.621Z,85.50
2017-07-12T08:27:53.173Z,85.20
2017-07-12T08:30:20.719Z,83.50
2017-07-12T08:32:48.223Z,83.80
2017-07-12T08:35:15.796Z,82.30
2017-07-12T08:37:43.277Z,83.50
2017-07-12T08:40:11.589Z,81.90
2017-07-12T08:42:39.138Z,81.00
2017-07-12T08:45:06.629Z,78.80
2017-07-12T08:47:34.110Z,80.00
2017-07-12T08:50:01.713Z,80.50
2017-07-12T08:52:29.233Z,79.30
2017-07-12T08:54:56.719Z,78.70
2017-07-12T08:57:25.039Z,77.70
2017-07-12T08:59:52.524Z,77.70
2017-07-12T09:02:20.014Z,76.30
2017-07-12T09:04:48.302Z,69.20
2017-07-12T09:07:15.801Z,69.10
2017-07-12T09:09:43.305Z,70.60
2017-07-12T09:12:11.714Z,69.90
2017-07-12T09:14:39.236Z,70.00
2017-07-12T09:17:07.508Z,69.20
2017-07-12T09:19:35.085Z,68.20
2017-07-12T09:22:03.360Z,66.50
2017-07-12T09:34:21.765Z,61.40
2017-07-12T09:36:50.027Z,60.50
2017-07-12T09:39:17.526Z,61.10
2017-07-12T09:41:45.064Z,58.30
2017-07-12T09:44:13.351Z,58.60
2017-07-12T09:46:42.187Z,57.80
2017-07-12T09:49:09.701Z,57.80
2017-07-12T09:51:37.951Z,59.60
2017-07-12T09:54:05.437Z,59.50
2017-07-12T09:56:33.711Z,59.00
2017-07-12T09:59:01.977Z,58.50
2017-07-12T10:01:30.231Z,57.00
2017-07-12T10:03:57.754Z,57.10
2017-07-12T10:06:25.257Z,56.20
2017-07-12T10:08:52.883Z,57.30
2017-07-12T10:11:20.398Z,56.50
2017-07-12T10:13:48.663Z,57.70
2017-07-12T10:16:16.161Z,57.70
2017-07-12T10:18:43.696Z,58.40
2017-07-12T10:21:11.948Z,60.90
2017-07-12T10:23:39.439Z,60.70
2017-07-12T10:26:06.973Z,60.70
2017-07-12T10:28:34.573Z,60.50
2017-07-12T10:31:02.057Z,58.00
2017-07-12T10:33:30.008Z,57.60
2017-07-12T10:35:57.575Z,57.20
2017-07-12T10:38:25.086Z,56.00
2017-07-12T10:40:54.031Z,57.90
2017-07-12T10:43:21.580Z,57.80
2017-07-12T10:45:49.375Z,56.30
2017-07-12T10:48:16.890Z,52.40
2017-07-12T10:50:44.403Z,52.80
2017-07-12T10:53:11.910Z,52.70
2017-07-12T10:55:39.432Z,52.90
2017-07-12T10:58:06.934Z,51.20
2017-07-12T11:00:34.421Z,51.10
2017-07-12T11:03:01.932Z,50.00
2017-07-12T11:05:30.197Z,52.30
2017-07-12T11:07:57.733Z,52.20
2017-07-12T11:10:25.608Z,54.80
2017-07-12T11:12:53.130Z,56.20
2017-07-12T11:15:20.732Z,56.10
2017-07-12T11:17:48.436Z,57.80
2017-07-12T11:20:15.932Z,57.40
2017-07-12T11:22:43.454Z,58.20
2017-07-12T11:25:11.003Z,57.60
2017-07-12T11:27:38.526Z,56.70
2017-07-12T11:30:06.054Z,56.30
2017-07-12T11:32:33.583Z,55.80
2017-07-12T11:35:01.071Z,56.10
2017-07-12T11:37:28.661Z,57.30
2017-07-12T11:39:56.179Z,58.20
2017-07-12T11:42:23.680Z,57.30
2017-07-12T11:44:51.163Z,57.60
2017-07-12T11:47:18.713Z,58.30
2017-07-12T11:49:46.200Z,58.40
2017-07-12T11:52:13.702Z,58.90
2017-07-12T11:54:41.227Z,59.70
2017-07-12T11:57:08.768Z,60.60
2017-07-12T11:59:36.276Z,61.10
2017-07-12T12:02:03.762Z,62.00
2017-07-12T12:04:31.370Z,61.90
2017-07-12T12:06:58.870Z,62.10
2017-07-12T12:09:27.145Z,62.60
2017-07-12T12:11:54.633Z,61.80
2017-07-12T12:14:22.875Z,64.60
2017-07-12T12:16:50.403Z,64.50
2017-07-12T12:19:17.891Z,67.10
2017-07-12T12:21:45.390Z,71.00
2017-07-12T12:24:13.652Z,82.00
2017-07-12T12:26:41.961Z,86.30
2017-07-12T12:29:09.508Z,85.80
2017-07-12T12:31:37.022Z,90.90
2017-07-12T12:34:04.538Z,95.50
2017-07-12T12:36:32.099Z,98.30
2017-07-12T12:38:59.680Z,98.90
2017-07-12T12:41:27.189Z,99.50
2017-07-12T12:43:55.454Z,99.90
2017-07-12T12:46:23.000Z,99.90
2017-07-12T12:48:50.475Z,99.90
2017-07-12T12:51:18.027Z,99.90
2017-07-12T12:53:45.582Z,99.90
2017-07-12T12:56:13.078Z,99.90
2017-07-12T12:58:40.571Z,99.90
2017-07-12T13:01:08.080Z,99.90
2017-07-12T13:03:36.354Z,99.90
2017-07-12T13:06:04.638Z,99.90
2017-07-12T13:08:33.028Z,99.90
2017-07-12T13:11:00.866Z,99.90
2017-07-12T13:13:28.356Z,99.90
2017-07-12T13:15:55.903Z,99.90
2017-07-12T13:18:23.443Z,99.90
2017-07-12T13:20:51.050Z,99.90
2017-07-12T13:23:18.598Z,99.90
2017-07-12T13:25:46.183Z,99.90
2017-07-12T13:28:13.687Z,99.90
2017-07-12T13:30:41.304Z,99.90
2017-07-12T13:33:08.838Z,99.90
2017-07-12T13:35:36.322Z,99.90
2017-07-12T13:38:03.848Z,99.90
2017-07-12T13:40:32.117Z,99.90
2017-07-12T13:43:00.405Z,99.90
2017-07-12T13:45:27.938Z,99.90
2017-07-12T13:47:55.546Z,99.90
2017-07-12T13:50:23.033Z,99.90
2017-07-12T13:52:50.764Z,99.90
2017-07-12T13:55:18.278Z,99.90
2017-07-12T13:57:46.537Z,99.90
2017-07-12T14:00:14.080Z,99.90
2017-07-12T14:02:41.597Z,99.90
2017-07-12T14:05:09.100Z,99.90
2017-07-12T14:07:36.612Z,99.90
2017-07-12T14:10:05.021Z,99.90
2017-07-12T14:12:32.534Z,99.90
2017-07-12T14:15:00.834Z,99.90
2017-07-12T14:17:28.381Z,99.90
2017-07-12T14:19:56.712Z,98.30
2017-07-12T14:22:24.262Z,98.20
2017-07-12T14:24:51.813Z,99.40
2017-07-12T14:27:19.347Z,99.90
2017-07-12T14:29:47.640Z,99.90
2017-07-12T14:32:15.130Z,99.90
2017-07-12T14:34:42.725Z,99.90
2017-07-12T14:37:10.274Z,99.90
2017-07-12T14:39:37.786Z,99.40
2017-07-12T14:42:05.547Z,98.50
2017-07-12T14:44:33.075Z,96.60
2017-07-12T14:47:01.387Z,95.40
2017-07-12T14:49:28.893Z,95.30
2017-07-12T14:51:56.438Z,95.70
2017-07-12T14:54:23.932Z,95.40
2017-07-12T14:56:52.186Z,82.00
2017-07-12T14:59:20.082Z,81.80
2017-07-12T15:01:48.373Z,78.40
2017-07-12T15:04:15.865Z,78.40
2017-07-12T15:06:44.411Z,84.20
2017-07-12T15:09:11.911Z,86.40
2017-07-12T15:11:39.404Z,90.40
2017-07-12T15:14:06.934Z,86.10
2017-07-12T15:16:34.440Z,92.10
2017-07-12T15:19:02.127Z,92.90
2017-07-12T15:21:29.698Z,94.00
2017-07-12T15:23:57.214Z,94.30
2017-07-12T15:26:25.492Z,97.50
2017-07-12T15:28:53.835Z,97.90
2017-07-12T15:31:21.345Z,97.90
2017-07-12T15:33:48.835Z,97.50
2017-07-12T15:36:16.452Z,99.40
2017-07-12T15:38:44.727Z,99.80
2017-07-12T15:41:13.060Z,99.80
2017-07-12T15:43:40.595Z,99.70
2017-07-12T15:46:08.109Z,99.90
2017-07-12T15:48:36.360Z,98.70
2017-07-12T15:51:03.899Z,98.40
2017-07-12T15:53:31.456Z,98.40
2017-07-12T15:55:58.976Z,99.60
2017-07-12T15:58:27.271Z,99.90
2017-07-12T16:00:54.769Z,99.90
2017-07-12T16:03:22.294Z,99.90
2017-07-12T16:05:49.841Z,99.90
2017-07-12T16:08:17.374Z,99.90
2017-07-12T16:10:44.877Z,99.90
2017-07-12T16:13:12.413Z,99.90
2017-07-12T16:15:39.920Z,99.90
2017-07-12T16:18:07.527Z,99.90
2017-07-12T16:20:35.905Z,99.90
2017-07-12T16:23:04.250Z,99.90
2017-07-12T16:25:31.734Z,99.90
2017-07-12T16:27:59.280Z,99.90
2017-07-12T16:30:26.767Z,99.90
2017-07-12T16:32:55.036Z,99.90
2017-07-12T16:35:23.356Z,96.00
2017-07-12T16:37:50.894Z,96.00
2017-07-12T16:40:18.385Z,92.50
2017-07-12T16:42:45.971Z,86.40
2017-07-12T16:45:13.465Z,72.40
2017-07-12T16:47:40.979Z,76.50
2017-07-12T16:50:08.515Z,75.20
2017-07-12T16:52:36.780Z,67.50
2017-07-12T16:55:05.011Z,62.60
2017-07-12T16:57:32.528Z,63.10
2017-07-12T17:00:00.050Z,69.00
2017-07-12T17:02:27.554Z,76.30
2017-07-12T17:04:56.793Z,86.70
2017-07-12T17:07:25.054Z,71.60
2017-07-12T17:09:52.560Z,71.60
2017-07-12T17:12:20.423Z,75.30
2017-07-12T17:14:47.984Z,75.40
2017-07-12T17:17:15.840Z,80.40
2017-07-12T17:19:43.423Z,81.30
2017-07-12T17:22:10.919Z,86.70
2017-07-12T17:24:38.427Z,77.40
2017-07-12T17:27:06.028Z,92.30
2017-07-12T17:29:33.549Z,92.90
2017-07-12T17:32:01.034Z,95.40
2017-07-12T17:34:28.785Z,96.60
2017-07-12T17:36:56.860Z,97.60
2017-07-12T17:39:24.367Z,97.60
2017-07-12T17:41:53.197Z,98.40
2017-07-12T17:44:20.687Z,97.40
2017-07-12T17:46:48.185Z,94.20
2017-07-12T17:49:16.482Z,94.70
2017-07-12T17:51:44.064Z,94.70
2017-07-12T17:54:11.580Z,94.60
2017-07-12T17:56:40.082Z,98.30
2017-07-12T17:59:07.596Z,98.30
2017-07-12T18:01:35.094Z,98.80
2017-07-12T18:04:03.587Z,98.70
2017-07-12T18:06:31.160Z,98.70
2017-07-12T18:08:58.719Z,99.40
2017-07-12T18:11:26.242Z,99.90
2017-07-12T18:13:54.550Z,99.90
2017-07-12T18:16:22.066Z,99.90
2017-07-12T18:18:49.692Z,99.90
2017-07-12T18:21:17.306Z,99.90
2017-07-12T18:23:45.570Z,99.90
2017-07-12T18:26:13.088Z,99.90
2017-07-12T18:28:40.595Z,99.90
2017-07-12T18:31:08.879Z,99.90
2017-07-12T18:33:37.497Z,99.90
2017-07-12T18:36:05.014Z,99.90
2017-07-12T18:38:33.283Z,99.90
2017-07-12T18:41:00.825Z,99.90
2017-07-12T18:43:28.354Z,99.90
2017-07-12T18:45:56.159Z,99.90
2017-07-12T18:48:23.652Z,99.90
2017-07-12T18:50:51.950Z,99.90
2017-07-12T18:53:19.723Z,99.90
2017-07-12T18:55:47.277Z,99.90
2017-07-12T18:58:14.788Z,99.90
2017-07-12T19:00:42.309Z,99.90
2017-07-12T19:03:09.809Z,99.90
2017-07-12T19:05:38.059Z,99.90
2017-07-12T19:08:05.728Z,99.90
2017-07-12T19:10:33.224Z,99.90
2017-07-12T19:13:01.600Z,99.90
2017-07-12T19:15:29.915Z,99.90
2017-07-12T19:17:57.398Z,99.90
2017-07-12T19:20:24.886Z,99.60
2017-07-12T19:22:53.162Z,99.60
2017-07-12T19:25:21.457Z,99.40
2017-07-12T19:27:48.939Z,98.70
2017-07-12T19:30:16.455Z,98.90
2017-07-12T19:32:44.703Z,97.80
2017-07-12T19:35:12.192Z,97.80
2017-07-12T19:37:40.474Z,97.80
2017-07-12T19:40:08.721Z,98.30
2017-07-12T19:42:36.229Z,98.30
2017-07-12T19:45:03.736Z,98.60
2017-07-12T19:47:31.233Z,98.80
2017-07-12T19:49:59.518Z,99.90
2017-07-12T19:52:27.174Z,99.90
2017-07-12T19:54:55.478Z,99.90
2017-07-12T19:57:23.053Z,99.90
2017-07-12T19:59:51.492Z,99.90
2017-07-12T20:02:19.080Z,99.90
2017-07-12T20:04:46.579Z,99.90
2017-07-12T20:07:14.094Z,99.90
2017-07-12T20:09:41.595Z,99.90
2017-07-12T20:12:09.222Z,99.90
2017-07-12T20:14:36.759Z,99.90
2017-07-12T20:17:04.238Z,99.90
2017-07-12T20:19:31.738Z,99.90
2017-07-12T20:21:59.252Z,99.90
2017-07-12T20:24:26.791Z,99.90
2017-07-12T20:26:55.065Z,99.90
2017-07-12T20:29:22.731Z,99.90
2017-07-12T20:31:50.205Z,99.90
2017-07-12T20:34:17.707Z,99.90
2017-07-12T20:36:45.228Z,99.90
2017-07-12T20:39:12.723Z,99.90
2017-07-12T20:41:41.359Z,99.90
2017-07-12T20:44:08.895Z,99.90
2017-07-12T20:46:37.189Z,99.90
2017-07-12T20:49:04.681Z,99.90
2017-07-12T20:51:33.222Z,99.90
2017-07-12T20:54:00.736Z,99.90
2017-07-12T20:56:28.240Z,99.90
2017-07-12T20:58:55.835Z,99.90
2017-07-12T21:01:24.084Z,99.90
2017-07-12T21:03:51.647Z,99.90
2017-07-12T21:06:19.202Z,99.90
2017-07-12T21:08:46.751Z,99.90
2017-07-12T21:11:15.018Z,99.90
2017-07-12T21:13:43.300Z,99.90
2017-07-12T21:16:11.594Z,99.90
2017-07-12T21:18:39.081Z,99.90
2017-07-12T21:21:06.956Z,99.90
2017-07-12T21:23:34.478Z,99.90
2017-07-12T21:26:01.977Z,99.90
2017-07-12T21:28:29.520Z,99.90
2017-07-12T21:30:57.019Z,99.90
2017-07-12T21:33:24.522Z,99.90
2017-07-12T21:35:52.078Z,99.90
2017-07-12T21:38:19.626Z,99.90
2017-07-12T21:40:47.897Z,99.90
2017-07-12T21:43:16.203Z,99.90
2017-07-12T21:45:43.696Z,99.90
2017-07-12T21:48:11.192Z,99.90
2017-07-12T21:50:39.495Z,99.90
2017-07-12T21:53:24.835Z,99.90
2017-07-12T21:56:10.852Z,99.90
2017-07-12T21:58:56.317Z,99.90
2017-07-12T22:01:42.461Z,99.90
2017-07-12T22:04:27.597Z,99.90
2017-07-12T22:07:13.572Z,99.90
2017-07-12T22:09:59.522Z,99.90
2017-07-12T22:12:44.766Z,99.90
2017-07-12T22:15:29.855Z,99.90
2017-07-12T22:18:15.482Z,99.90
2017-07-12T22:21:00.554Z,99.90
2017-07-12T22:23:46.184Z,99.90
2017-07-12T22:26:31.406Z,99.90
2017-07-12T22:29:16.709Z,99.90
2017-07-12T22:32:02.640Z,99.90
2017-07-12T22:34:48.310Z,99.90
2017-07-12T22:37:21.419Z,99.90
2017-07-12T22:39:54.638Z,99.90
2017-07-12T22:42:27.804Z,99.90
2017-07-12T22:44:55.539Z,99.90
2017-07-12T22:47:23.087Z,99.90
2017-07-12T22:49:51.346Z,99.90
2017-07-12T22:52:18.881Z,99.90
2017-07-12T22:54:46.367Z,99.90
2017-07-12T22:57:14.638Z,99.90
2017-07-12T22:59:42.911Z,99.90
2017-07-12T23:02:10.417Z,99.90
2017-07-12T23:04:37.956Z,99.90
2017-07-12T23:07:05.517Z,99.90
2017-07-12T23:09:33.073Z,99.90
2017-07-12T23:12:00.557Z,99.90
2017-07-12T23:14:28.080Z,99.90
2017-07-12T23:16:56.341Z,99.90
2017-07-12T23:19:23.843Z,99.90
2017-07-12T23:21:51.352Z,99.90
2017-07-12T23:24:18.973Z,99.90
2017-07-12T23:26:46.529Z,99.90
2017-07-12T23:29:14.067Z,99.90
2017-07-12T23:31:41.624Z,99.90
2017-07-12T23:34:09.889Z,99.90
2017-07-12T23:36:38.162Z,99.90
2017-07-12T23:39:06.424Z,99.90
2017-07-12T23:41:34.030Z,99.90
2017-07-12T23:44:01.534Z,99.90
2017-07-12T23:46:29.063Z,99.90
2017-07-12T23:48:56.535Z,99.90
2017-07-12T23:51:24.177Z,99.90
2017-07-12T23:53:51.656Z,99.90
2017-07-12T23:56:19.169Z,99.90
2017-07-12T23:58:47.450Z,99.90
